首页
METAR-TAF:

METAR-TAF

机场 :

武里南市, 泰国

纬度: 15-13-46N, 经度: 103-15-04E, 海拔: 180米

当前天气观测

该预报发布于55分钟前的05:00 UTC
风速12节,风向东北,在东转东北之间变化
温度 28°C
湿度 62%
气压 1016 hPa
能见度10公里或以上
少量云层高于4500英尺
多云层高于10000英尺

METAR: VTUO 120500Z 04012KT 010V070 9999 FEW045 BKN100 28/20 Q1016 NOSIG

时间: 12:55 (05:55 UTC)

预报

该预报发布于55分钟前的05:00 UTC
预报有效从12日的 06点(UTC)到 13日的 06点(UTC)
风速15节,风向东转东北
能見度: 9000
成为
从 12日的 19点(UTC)到 12日的 21点(UTC)
风速10节,风向东北
能见度10公里或以上
1500米以下无云,无积雨云

TAF: VTUO 120500Z 1206/1306 06015KT 9000 NSC BECMG 1219/1221 05010KT CAVOK

超过4000个机场的气象观测和天气预报(METAR&TAF报告)。

可查询的气象台以黄色和红色小点在地图上表示。

将鼠标移到小点上方,可查看气象台名称。

然后点击查看天气观测和预报。

如需切换地图:点击带黑十字的绿色按钮放大地图;点击带横线的绿色按钮缩小地图;或者点击绿色箭头查看邻近地区的地图。


METAR-TAF: